Time;durP1;ratioP1;P1;durP2;ratioP2;P2;SDS_P1;SDS_P2;PMS_P1;PMS_P2;Temp;Humidity;BMP_temperature;BMP_pressure;BME280_temperature;BME280_humidity;BME280_pressure;Samples;Min_cycle;Max_cycle;Signal;HPM_P1;HPM_P2
2021/10/24 00:02:13;;;;;;;17.53;8.07;;;;;;;;;;5067888;28;20041;-88
2021/10/24 00:04:39;;;;;;;16.03;8.23;;;;;;;;;;5034915;28;20372;-88
2021/10/24 00:07:04;;;;;;;16.80;9.20;;;;;;;;;;5065203;28;20059;-88
2021/10/24 00:09:29;;;;;;;18.33;8.80;;;;;;;;;;5033688;28;20024;-88
2021/10/24 00:11:54;;;;;;;14.90;7.20;;;;;;;;;;5034704;28;20021;-88
2021/10/24 00:14:19;;;;;;;19.90;8.53;;;;;;;;;;5022027;28;20025;-88
2021/10/24 00:16:44;;;;;;;17.57;7.97;;;;;;;;;;5034417;28;20358;-88
2021/10/24 00:19:10;;;;;;;16.90;7.83;;;;;;;;;;5034575;28;20021;-88
2021/10/24 00:21:35;;;;;;;14.57;7.73;;;;;;;;;;5034437;28;20037;-89
2021/10/24 00:24:00;;;;;;;16.20;7.63;;;;;;;;;;5067644;28;20032;-88
2021/10/24 00:26:25;;;;;;;15.17;7.07;;;;;;;;;;5034452;28;20028;-88
2021/10/24 00:28:51;;;;;;;16.00;7.53;;;;;;;;;;5062922;28;20024;-89
2021/10/24 00:31:16;;;;;;;14.63;7.20;;;;;;;;;;5034287;28;20112;-88
2021/10/24 00:33:41;;;;;;;14.93;6.73;;;;;;;;;;5034472;28;20048;-88
2021/10/24 00:36:06;;;;;;;16.80;7.73;;;;;;;;;;5034187;28;20025;-89
2021/10/24 00:38:32;;;;;;;11.97;6.27;;;;;;;;;;5034053;28;20053;-88
2021/10/24 00:40:57;;;;;;;16.03;7.37;;;;;;;;;;5034280;28;20060;-88
2021/10/24 00:43:25;;;;;;;12.90;6.70;;;;;;;;;;5034138;28;20137;-88
2021/10/24 00:45:50;;;;;;;12.63;6.50;;;;;;;;;;5053995;28;20018;-88
2021/10/24 00:48:15;;;;;;;11.60;6.63;;;;;;;;;;5033875;28;20037;-88
2021/10/24 00:50:42;;;;;;;13.77;7.10;;;;;;;;;;5067240;28;20020;-89
2021/10/24 00:53:08;;;;;;;16.73;6.67;;;;;;;;;;5033911;28;20075;-88
2021/10/24 00:55:33;;;;;;;12.77;7.03;;;;;;;;;;5032297;28;20062;-88
2021/10/24 00:58:00;;;;;;;14.23;7.30;;;;;;;;;;5023102;28;20108;-88
2021/10/24 01:00:25;;;;;;;13.97;7.17;;;;;;;;;;5052856;28;20026;-89
2021/10/24 01:02:50;;;;;;;12.73;6.63;;;;;;;;;;5033746;28;20018;-88
2021/10/24 01:05:17;;;;;;;12.73;6.73;;;;;;;;;;5067275;28;20458;-88
2021/10/24 01:07:43;;;;;;;12.07;6.67;;;;;;;;;;5066769;28;20021;-88
2021/10/24 01:10:14;;;;;;;12.27;6.73;;;;;;;;;;5033679;28;20049;-88
2021/10/24 01:12:39;;;;;;;13.13;6.80;;;;;;;;;;5033005;28;20041;-88
2021/10/24 01:15:05;;;;;;;11.23;6.33;;;;;;;;;;5033410;28;20524;-88
2021/10/24 01:17:31;;;;;;;13.57;6.33;;;;;;;;;;5024404;28;20022;-88
2021/10/24 01:19:56;;;;;;;14.37;6.87;;;;;;;;;;5033463;28;20052;-89
2021/10/24 01:22:22;;;;;;;17.87;7.10;;;;;;;;;;5034512;28;20022;-88
2021/10/24 01:24:47;;;;;;;11.40;5.97;;;;;;;;;;5033762;28;20032;-88
2021/10/24 01:27:12;;;;;;;12.43;6.17;;;;;;;;;;5033378;28;20106;-88
2021/10/24 01:29:38;;;;;;;9.53;5.60;;;;;;;;;;5033363;28;20022;-88
2021/10/24 01:32:04;;;;;;;11.63;6.50;;;;;;;;;;5034242;28;20464;-88
2021/10/24 01:34:29;;;;;;;11.80;6.27;;;;;;;;;;5033137;28;20117;-88
2021/10/24 01:36:54;;;;;;;12.30;6.40;;;;;;;;;;5032783;28;20112;-88
2021/10/24 01:39:20;;;;;;;13.63;5.83;;;;;;;;;;5057585;28;20021;-88
2021/10/24 01:41:45;;;;;;;10.77;6.23;;;;;;;;;;5046878;28;20021;-88
2021/10/24 01:44:10;;;;;;;11.37;6.43;;;;;;;;;;5032996;28;20028;-88
2021/10/24 01:46:35;;;;;;;11.80;6.37;;;;;;;;;;5066312;28;20009;-88
2021/10/24 01:49:01;;;;;;;11.90;6.07;;;;;;;;;;5066095;28;20017;-88
2021/10/24 01:51:26;;;;;;;10.10;6.00;;;;;;;;;;5033005;28;20427;-88
2021/10/24 01:53:51;;;;;;;12.73;6.30;;;;;;;;;;5066334;28;20026;-88
2021/10/24 01:56:17;;;;;;;11.97;6.63;;;;;;;;;;5032828;28;20026;-88
2021/10/24 01:58:42;;;;;;;13.73;6.40;;;;;;;;;;5066232;28;20033;-88
2021/10/24 02:01:09;;;;;;;13.43;6.40;;;;;;;;;;5066174;28;20029;-88
2021/10/24 02:03:36;;;;;;;15.33;6.60;;;;;;;;;;5032658;28;20021;-88
2021/10/24 02:06:02;;;;;;;14.97;5.63;;;;;;;;;;5032765;28;20354;-88
2021/10/24 02:08:27;;;;;;;13.93;6.60;;;;;;;;;;5037180;28;20075;-88
2021/10/24 02:10:52;;;;;;;12.23;6.17;;;;;;;;;;5032739;28;20017;-88
2021/10/24 02:13:18;;;;;;;14.90;6.67;;;;;;;;;;5032288;28;20396;-88
2021/10/24 02:15:43;;;;;;;12.67;6.83;;;;;;;;;;5032311;28;20101;-88
2021/10/24 02:18:09;;;;;;;15.10;7.20;;;;;;;;;;5059180;28;20033;-88
2021/10/24 02:20:35;;;;;;;16.97;7.17;;;;;;;;;;5023836;28;20056;-88
2021/10/24 02:23:01;;;;;;;11.47;6.07;;;;;;;;;;5052860;28;20034;-88
2021/10/24 02:25:27;;;;;;;14.10;6.83;;;;;;;;;;5031386;28;20452;-88
2021/10/24 02:27:52;;;;;;;11.87;6.73;;;;;;;;;;5032803;28;20048;-87
2021/10/24 02:30:17;;;;;;;13.97;6.57;;;;;;;;;;5033681;28;20385;-88
2021/10/24 02:32:43;;;;;;;13.10;6.83;;;;;;;;;;5032204;28;20022;-87
2021/10/24 02:35:09;;;;;;;13.53;6.60;;;;;;;;;;5064731;28;20112;-88
2021/10/24 02:37:34;;;;;;;15.83;5.67;;;;;;;;;;5023119;28;20057;-88
2021/10/24 02:39:59;;;;;;;10.87;6.37;;;;;;;;;;5061596;28;20026;-88
2021/10/24 02:42:25;;;;;;;12.97;6.30;;;;;;;;;;5065511;28;20025;-88
2021/10/24 02:44:50;;;;;;;14.20;6.33;;;;;;;;;;5031980;28;20017;-88
2021/10/24 02:47:17;;;;;;;16.27;6.37;;;;;;;;;;5035521;28;20016;-88
2021/10/24 02:49:43;;;;;;;16.30;6.37;;;;;;;;;;5032150;28;20021;-88
2021/10/24 02:52:08;;;;;;;14.53;6.30;;;;;;;;;;5031823;28;20076;-88
2021/10/24 02:54:33;;;;;;;13.97;6.80;;;;;;;;;;5032108;28;20492;-89
2021/10/24 02:57:00;;;;;;;13.00;6.50;;;;;;;;;;5032212;28;20021;-88
2021/10/24 02:59:25;;;;;;;14.63;6.80;;;;;;;;;;5025020;28;20056;-88
2021/10/24 03:01:50;;;;;;;15.70;6.67;;;;;;;;;;5058979;28;20025;-88
2021/10/24 03:04:16;;;;;;;13.07;6.63;;;;;;;;;;5031794;28;20022;-89
2021/10/24 03:06:42;;;;;;;14.80;6.83;;;;;;;;;;5062487;28;20485;-88
2021/10/24 03:09:07;;;;;;;16.97;6.93;;;;;;;;;;5031743;28;20013;-88
2021/10/24 03:11:33;;;;;;;14.00;7.17;;;;;;;;;;5065380;28;20366;-89
2021/10/24 03:13:58;;;;;;;14.17;6.90;;;;;;;;;;5032917;28;20018;-88
2021/10/24 03:16:23;;;;;;;16.47;6.83;;;;;;;;;;5033072;28;20100;-89
2021/10/24 03:18:48;;;;;;;15.50;6.50;;;;;;;;;;5035584;28;20021;-88
2021/10/24 03:21:14;;;;;;;14.90;6.40;;;;;;;;;;5033175;28;20048;-88
2021/10/24 03:23:40;;;;;;;14.30;6.70;;;;;;;;;;5065263;28;20087;-88
2021/10/24 03:26:05;;;;;;;17.27;7.17;;;;;;;;;;5056547;28;20477;-88
2021/10/24 03:28:30;;;;;;;16.37;6.70;;;;;;;;;;5032500;28;20021;-88
2021/10/24 03:30:56;;;;;;;14.93;6.97;;;;;;;;;;5031919;28;20026;-88
2021/10/24 03:33:21;;;;;;;14.37;6.70;;;;;;;;;;5031546;28;20029;-88
2021/10/24 03:35:46;;;;;;;14.37;6.73;;;;;;;;;;5048317;28;20029;-88
2021/10/24 03:38:12;;;;;;;16.37;7.40;;;;;;;;;;5032670;28;20020;-88
2021/10/24 03:40:37;;;;;;;11.70;6.77;;;;;;;;;;5055779;28;20037;-88
2021/10/24 03:43:02;;;;;;;14.87;6.63;;;;;;;;;;5065217;28;20032;-89
2021/10/24 03:45:27;;;;;;;12.27;6.47;;;;;;;;;;5031825;28;20022;-88
2021/10/24 03:47:53;;;;;;;13.10;6.63;;;;;;;;;;5055407;28;20018;-88
2021/10/24 03:50:18;;;;;;;12.07;6.50;;;;;;;;;;5035028;28;20014;-88
2021/10/24 03:52:43;;;;;;;18.17;6.70;;;;;;;;;;5035179;28;20021;-88
2021/10/24 03:55:12;;;;;;;13.77;6.93;;;;;;;;;;5032487;28;20010;-88
2021/10/24 03:57:41;;;;;;;14.87;6.53;;;;;;;;;;5025235;28;20032;-88
2021/10/24 04:00:07;;;;;;;10.53;5.73;;;;;;;;;;5038488;28;20025;-88
2021/10/24 04:02:32;;;;;;;11.63;6.87;;;;;;;;;;5068229;28;20024;-88
2021/10/24 04:04:58;;;;;;;15.57;6.77;;;;;;;;;;5034927;28;20022;-88
2021/10/24 04:07:23;;;;;;;12.00;6.37;;;;;;;;;;5034893;28;20025;-88
2021/10/24 04:09:48;;;;;;;14.67;7.23;;;;;;;;;;5034922;28;20014;-88
2021/10/24 04:12:13;;;;;;;12.57;6.90;;;;;;;;;;5034758;28;20100;-89
2021/10/24 04:14:38;;;;;;;12.10;6.50;;;;;;;;;;5035321;28;20017;-88
2021/10/24 04:17:04;;;;;;;13.40;6.87;;;;;;;;;;5034535;28;20018;-88
2021/10/24 04:19:29;;;;;;;15.63;6.73;;;;;;;;;;5034699;28;20522;-88
2021/10/24 04:21:55;;;;;;;11.37;6.73;;;;;;;;;;5067871;28;20033;-89
2021/10/24 04:24:20;;;;;;;11.80;6.57;;;;;;;;;;5067820;28;20031;-88
2021/10/24 04:26:46;;;;;;;15.63;6.67;;;;;;;;;;5034596;28;20017;-88
2021/10/24 04:29:11;;;;;;;11.27;6.13;;;;;;;;;;5034317;28;20017;-88
2021/10/24 04:31:36;;;;;;;15.73;7.17;;;;;;;;;;5034212;28;20017;-89
2021/10/24 04:34:02;;;;;;;14.77;6.20;;;;;;;;;;5068000;28;20075;-88
2021/10/24 04:36:28;;;;;;;11.20;5.73;;;;;;;;;;5034290;28;20472;-89
2021/10/24 04:38:53;;;;;;;14.87;5.77;;;;;;;;;;5034507;28;20693;-89
2021/10/24 04:41:18;;;;;;;12.90;5.93;;;;;;;;;;5067742;28;20025;-89
2021/10/24 04:43:43;;;;;;;7.80;5.20;;;;;;;;;;5034314;28;20013;-89
2021/10/24 04:46:09;;;;;;;11.17;5.73;;;;;;;;;;5034236;28;20017;-89
2021/10/24 04:48:34;;;;;;;11.47;5.43;;;;;;;;;;5034117;28;20109;-88
2021/10/24 04:50:59;;;;;;;10.07;5.40;;;;;;;;;;5050719;28;20029;-89
2021/10/24 04:53:25;;;;;;;10.60;5.53;;;;;;;;;;5034030;28;20044;-89
2021/10/24 04:55:51;;;;;;;11.47;5.53;;;;;;;;;;5034445;28;20033;-88
2021/10/24 04:58:16;;;;;;;9.93;5.43;;;;;;;;;;5033524;28;20063;-89
2021/10/24 05:00:41;;;;;;;10.50;5.80;;;;;;;;;;5032885;28;20025;-88
2021/10/24 05:03:07;;;;;;;9.80;5.97;;;;;;;;;;5021406;28;20080;-89
2021/10/24 05:05:32;;;;;;;11.33;5.60;;;;;;;;;;5032129;28;20087;-90
2021/10/24 05:07:57;;;;;;;13.27;6.43;;;;;;;;;;5033912;28;20026;-89
2021/10/24 05:10:23;;;;;;;14.17;6.40;;;;;;;;;;5034001;28;20021;-88
2021/10/24 05:12:48;;;;;;;12.07;6.40;;;;;;;;;;5036295;28;20033;-88
2021/10/24 05:15:13;;;;;;;12.67;6.83;;;;;;;;;;5035988;28;20025;-88
2021/10/24 05:17:38;;;;;;;12.30;5.87;;;;;;;;;;5033784;28;20114;-88
2021/10/24 05:20:05;;;;;;;14.37;6.50;;;;;;;;;;5033385;28;20036;-88
2021/10/24 05:22:30;;;;;;;11.23;5.97;;;;;;;;;;5029190;28;20026;-88
2021/10/24 05:24:55;;;;;;;13.17;6.60;;;;;;;;;;5023963;28;20048;-89
2021/10/24 05:27:21;;;;;;;15.33;6.97;;;;;;;;;;5029495;28;20488;-88
2021/10/24 05:29:46;;;;;;;17.00;8.03;;;;;;;;;;5031652;28;20479;-89
2021/10/24 05:32:11;;;;;;;13.20;6.90;;;;;;;;;;5066303;28;20025;-89
2021/10/24 05:34:37;;;;;;;18.63;7.37;;;;;;;;;;5032976;28;20029;-88
2021/10/24 05:37:02;;;;;;;10.10;6.13;;;;;;;;;;5033314;28;20021;-89
2021/10/24 05:39:27;;;;;;;18.07;7.07;;;;;;;;;;5033364;28;20360;-88
2021/10/24 05:41:53;;;;;;;15.80;7.00;;;;;;;;;;5034120;28;20471;-88
2021/10/24 05:44:19;;;;;;;13.13;6.53;;;;;;;;;;5039775;28;20067;-89
2021/10/24 05:46:48;;;;;;;13.63;6.27;;;;;;;;;;5032883;28;20032;-89
2021/10/24 05:49:14;;;;;;;12.77;5.93;;;;;;;;;;5032989;28;20025;-88
2021/10/24 05:51:39;;;;;;;10.30;6.07;;;;;;;;;;5032871;28;20026;-88
2021/10/24 05:54:05;;;;;;;16.20;6.27;;;;;;;;;;5034044;28;20032;-89
2021/10/24 05:56:30;;;;;;;14.33;6.37;;;;;;;;;;5032971;28;20021;-88
2021/10/24 05:58:55;;;;;;;12.10;6.37;;;;;;;;;;5066126;28;20037;-89
2021/10/24 06:01:26;;;;;;;12.67;5.93;;;;;;;;;;5032930;28;20017;-89
2021/10/24 06:03:51;;;;;;;18.60;8.07;;;;;;;;;;5032718;28;20014;-89
2021/10/24 06:06:16;;;;;;;16.63;8.33;;;;;;;;;;5032821;28;20027;-89
2021/10/24 06:08:42;;;;;;;14.47;7.07;;;;;;;;;;5055079;28;20020;-89
2021/10/24 06:11:14;;;;;;;13.90;8.10;;;;;;;;;;5032476;28;20465;-89
2021/10/24 06:13:42;;;;;;;11.95;6.75;;;;;;;;;;5065930;28;20116;-89
2021/10/24 06:16:08;;;;;;;12.43;6.30;;;;;;;;;;5066132;28;20061;-89
2021/10/24 06:18:33;;;;;;;12.00;6.70;;;;;;;;;;5035530;28;20052;-89
2021/10/24 06:20:58;;;;;;;15.60;6.60;;;;;;;;;;5033872;28;20018;-89
2021/10/24 06:23:29;;;;;;;12.13;6.20;;;;;;;;;;5033394;28;20083;-89
2021/10/24 06:25:56;;;;;;;11.33;6.00;;;;;;;;;;5032558;28;20017;-89
2021/10/24 06:28:21;;;;;;;10.87;6.33;;;;;;;;;;5040110;28;20365;-89
2021/10/24 06:30:46;;;;;;;20.23;7.70;;;;;;;;;;5065896;28;20163;-89
2021/10/24 06:33:11;;;;;;;17.17;8.00;;;;;;;;;;5032285;28;20082;-89
2021/10/24 06:35:37;;;;;;;19.90;7.27;;;;;;;;;;5033236;28;20025;-89
2021/10/24 06:38:03;;;;;;;12.27;6.93;;;;;;;;;;5039123;28;20029;-89
2021/10/24 06:40:28;;;;;;;14.57;7.27;;;;;;;;;;5065827;28;20025;-89
2021/10/24 06:42:53;;;;;;;14.50;7.17;;;;;;;;;;5032216;28;20029;-89
2021/10/24 06:45:19;;;;;;;15.43;7.53;;;;;;;;;;5031674;28;20470;-89
2021/10/24 06:47:46;;;;;;;13.10;6.97;;;;;;;;;;5032652;28;20457;-89
2021/10/24 06:50:11;;;;;;;11.93;6.87;;;;;;;;;;5065715;28;20020;-89
2021/10/24 06:52:37;;;;;;;12.63;7.23;;;;;;;;;;5065763;28;20013;-90
2021/10/24 06:55:03;;;;;;;10.40;6.20;;;;;;;;;;5031390;28;20021;-89
2021/10/24 06:57:28;;;;;;;11.40;6.73;;;;;;;;;;5057132;28;20500;-89
2021/10/24 06:59:54;;;;;;;14.80;6.87;;;;;;;;;;5026329;28;20022;-89
2021/10/24 07:02:19;;;;;;;13.63;6.73;;;;;;;;;;5065364;28;20028;-89
2021/10/24 07:04:45;;;;;;;16.90;6.70;;;;;;;;;;5042768;28;20032;-89
2021/10/24 07:07:10;;;;;;;16.50;7.30;;;;;;;;;;5050297;28;20453;-90
2021/10/24 07:09:35;;;;;;;15.77;7.20;;;;;;;;;;5056978;28;20030;-89
2021/10/24 07:12:00;;;;;;;13.57;6.93;;;;;;;;;;5065608;28;20021;-89
2021/10/24 07:14:26;;;;;;;11.63;6.33;;;;;;;;;;5033100;28;20024;-89
2021/10/24 07:16:51;;;;;;;12.60;6.50;;;;;;;;;;5065406;28;20075;-89
2021/10/24 07:19:16;;;;;;;11.87;6.40;;;;;;;;;;5065153;28;20888;-89
2021/10/24 07:21:41;;;;;;;14.73;6.43;;;;;;;;;;5031834;28;20030;-89
2021/10/24 07:24:06;;;;;;;13.30;6.50;;;;;;;;;;5034933;28;20032;-89
2021/10/24 07:26:32;;;;;;;13.53;6.30;;;;;;;;;;5045925;28;20017;-89
2021/10/24 07:28:58;;;;;;;16.37;6.87;;;;;;;;;;5069340;28;20376;-89
2021/10/24 07:31:23;;;;;;;12.23;5.80;;;;;;;;;;5035096;28;20020;-89
2021/10/24 07:33:48;;;;;;;13.57;6.27;;;;;;;;;;5025013;28;20017;-89
2021/10/24 07:36:14;;;;;;;13.33;5.97;;;;;;;;;;5061167;28;20028;-91
2021/10/24 07:38:40;;;;;;;12.40;6.13;;;;;;;;;;5062785;28;20080;-90
2021/10/24 07:41:05;;;;;;;7.83;4.07;;;;;;;;;;5054974;28;20065;-90
2021/10/24 07:43:32;;;;;;;16.27;5.10;;;;;;;;;;5035678;28;20524;-90
2021/10/24 07:45:58;;;;;;;13.98;5.10;;;;;;;;;;5035340;28;20032;-90
2021/10/24 07:48:23;;;;;;;14.23;5.03;;;;;;;;;;5037730;28;20104;-90
2021/10/24 07:50:49;;;;;;;12.50;4.97;;;;;;;;;;5035243;28;20555;-90
2021/10/24 07:53:14;;;;;;;12.80;5.10;;;;;;;;;;5030810;28;20029;-90
2021/10/24 07:55:39;;;;;;;11.33;5.00;;;;;;;;;;5036055;28;20021;-90
2021/10/24 07:58:05;;;;;;;12.27;5.37;;;;;;;;;;5034969;28;20040;-89
2021/10/24 08:00:30;;;;;;;10.03;5.23;;;;;;;;;;5035102;28;20388;-90
2021/10/24 08:02:55;;;;;;;12.53;5.40;;;;;;;;;;5035910;28;20030;-90
2021/10/24 08:05:21;;;;;;;13.97;4.93;;;;;;;;;;5020769;28;20026;-90
2021/10/24 08:07:46;;;;;;;11.67;4.87;;;;;;;;;;5034499;28;20017;-90
2021/10/24 08:10:12;;;;;;;9.25;4.35;;;;;;;;;;5067957;28;20024;-88
2021/10/24 08:12:37;;;;;;;14.90;4.38;;;;;;;;;;5034867;28;20025;-90
2021/10/24 08:15:04;;;;;;;9.70;4.38;;;;;;;;;;5034713;28;20021;-90
2021/10/24 08:17:29;;;;;;;12.35;3.60;;;;;;;;;;5047544;28;20018;-90
2021/10/24 08:19:54;;;;;;;12.98;3.95;;;;;;;;;;5033867;28;20519;-90
2021/10/24 08:22:19;;;;;;;9.65;3.90;;;;;;;;;;5035672;28;20017;-90
2021/10/24 08:24:45;;;;;;;7.15;3.72;;;;;;;;;;5033423;28;20021;-90
2021/10/24 08:27:10;;;;;;;10.05;4.30;;;;;;;;;;5030468;28;20026;-90
2021/10/24 08:29:37;;;;;;;8.52;4.25;;;;;;;;;;5030446;28;20493;-90
2021/10/24 08:32:05;;;;;;;8.50;4.20;;;;;;;;;;5040501;28;20032;-90
2021/10/24 08:34:31;;;;;;;10.48;4.22;;;;;;;;;;5040154;28;20052;-90
2021/10/24 08:36:56;;;;;;;11.07;4.13;;;;;;;;;;5035311;28;20065;-90
2021/10/24 08:39:21;;;;;;;11.70;4.80;;;;;;;;;;5066108;28;20458;-90
2021/10/24 08:41:49;;;;;;;10.02;3.70;;;;;;;;;;5047045;28;20025;-90
2021/10/24 08:44:15;;;;;;;11.48;4.63;;;;;;;;;;5067677;28;20361;-90
2021/10/24 08:46:40;;;;;;;8.48;4.03;;;;;;;;;;5036060;28;20018;-90
2021/10/24 08:49:06;;;;;;;8.05;3.55;;;;;;;;;;5035521;28;20481;-84
2021/10/24 08:51:31;;;;;;;6.70;3.50;;;;;;;;;;5033825;28;20381;-83
2021/10/24 08:53:57;;;;;;;7.78;3.88;;;;;;;;;;5050128;28;20029;-83
2021/10/24 08:56:24;;;;;;;7.65;4.00;;;;;;;;;;5036016;28;20043;-84
2021/10/24 08:58:49;;;;;;;8.50;3.40;;;;;;;;;;5035917;28;20417;-83
2021/10/24 09:01:16;;;;;;;13.05;4.30;;;;;;;;;;5050648;28;20099;-82
2021/10/24 09:04:01;;;;;;;10.77;4.03;;;;;;;;;;5031671;28;20033;-83
2021/10/24 09:06:42;;;;;;;7.18;3.50;;;;;;;;;;5058875;28;20497;-83
2021/10/24 09:09:11;;;;;;;7.55;3.53;;;;;;;;;;5048059;28;20029;-83
2021/10/24 09:11:39;;;;;;;7.55;3.80;;;;;;;;;;5034426;28;20435;-83
2021/10/24 09:14:04;;;;;;;7.07;2.63;;;;;;;;;;5043774;28;20044;-83
2021/10/24 09:16:29;;;;;;;7.03;3.58;;;;;;;;;;5036323;28;20021;-96
2021/10/24 09:18:54;;;;;;;6.28;3.30;;;;;;;;;;5078845;28;20037;-96
2021/10/24 09:21:20;;;;;;;9.25;4.15;;;;;;;;;;5071930;28;20129;-96
2021/10/24 09:23:50;;;;;;;6.90;2.65;;;;;;;;;;5068357;28;20506;-96
2021/10/24 09:26:22;;;;;;;10.73;3.80;;;;;;;;;;5069848;28;20104;-96
2021/10/24 09:28:48;;;;;;;;;;;;;;;;;;5037531;28;20467;-95
2021/10/24 09:31:13;;;;;;;8.90;3.55;;;;;;;;;;5070235;28;19943;-96
2021/10/24 09:33:42;;;;;;;7.75;2.70;;;;;;;;;;5021029;28;20294;-96
2021/10/24 09:36:07;;;;;;;8.50;3.17;;;;;;;;;;5030479;28;20104;-95
2021/10/24 09:38:37;;;;;;;6.72;3.03;;;;;;;;;;5041478;28;20092;-96
2021/10/24 09:41:03;;;;;;;19.60;3.80;;;;;;;;;;5024401;28;20026;-95
2021/10/24 09:43:28;;;;;;;8.32;4.15;;;;;;;;;;5033589;28;20017;-95
2021/10/24 09:45:56;;;;;;;9.77;3.72;;;;;;;;;;5073410;28;20029;-96
2021/10/24 09:48:23;;;;;;;9.85;3.80;;;;;;;;;;5073563;28;20165;-96
2021/10/24 09:50:52;;;;;;;6.43;2.92;;;;;;;;;;5038464;28;20009;-96
2021/10/24 09:53:22;;;;;;;5.88;2.40;;;;;;;;;;5031545;28;20021;-95
2021/10/24 09:56:01;;;;;;;5.45;2.97;;;;;;;;;;5034787;28;20453;-96
2021/10/24 09:58:26;;;;;;;8.90;4.10;;;;;;;;;;5034756;28;20022;-95
2021/10/24 10:00:52;;;;;;;9.00;3.53;;;;;;;;;;5034593;28;20156;-95
2021/10/24 10:03:20;;;;;;;8.07;3.78;;;;;;;;;;5067029;28;20041;-94
2021/10/24 10:05:46;;;;;;;5.82;2.25;;;;;;;;;;5042109;28;20016;-96
2021/10/24 10:08:11;;;;;;;8.52;3.25;;;;;;;;;;5038855;28;20026;-95
2021/10/24 10:10:41;;;;;;;4.88;2.92;;;;;;;;;;5032266;28;20013;-96
2021/10/24 10:13:10;;;;;;;8.77;3.75;;;;;;;;;;5034627;28;20026;-95
2021/10/24 10:15:36;;;;;;;7.05;3.80;;;;;;;;;;5034683;28;20017;-94
2021/10/24 10:18:04;;;;;;;6.22;3.05;;;;;;;;;;5033729;28;20013;-95
2021/10/24 10:20:30;;;;;;;7.03;3.00;;;;;;;;;;5061549;28;20030;-95
2021/10/24 10:23:06;;;;;;;11.13;3.25;;;;;;;;;;5040538;28;20016;-95
2021/10/24 10:25:32;;;;;;;5.72;2.92;;;;;;;;;;5019699;28;20112;-95
2021/10/24 10:27:58;;;;;;;5.75;2.85;;;;;;;;;;5031857;28;20060;-95
2021/10/24 10:30:32;;;;;;;4.90;2.38;;;;;;;;;;5030322;28;20030;-94
2021/10/24 10:32:58;;;;;;;5.75;2.35;;;;;;;;;;5065351;28;20032;-94
2021/10/24 10:35:24;;;;;;;7.47;2.97;;;;;;;;;;5064318;28;20026;-94
2021/10/24 10:37:51;;;;;;;6.60;2.47;;;;;;;;;;5032641;28;20382;-94
2021/10/24 10:40:16;;;;;;;5.20;2.35;;;;;;;;;;5033120;28;20546;-96
2021/10/24 10:42:45;;;;;;;5.88;2.67;;;;;;;;;;5067097;28;20108;-95
2021/10/24 10:45:13;;;;;;;9.77;2.90;;;;;;;;;;5037968;28;20041;-95
2021/10/24 10:47:49;;;;;;;4.25;2.28;;;;;;;;;;5050031;28;20473;-94
2021/10/24 10:50:27;;;;;;;7.35;2.70;;;;;;;;;;5034475;28;20021;-94
2021/10/24 10:52:52;;;;;;;6.90;2.90;;;;;;;;;;5033176;28;20017;-95
2021/10/24 10:55:17;;;;;;;6.65;2.88;;;;;;;;;;5036855;28;20028;-93
2021/10/24 10:57:43;;;;;;;6.78;3.50;;;;;;;;;;5032411;28;20048;-95
2021/10/24 11:00:28;;;;;;;7.13;3.30;;;;;;;;;;5036972;28;20116;-94
2021/10/24 11:02:54;;;;;;;4.15;2.22;;;;;;;;;;5038131;28;20017;-95
2021/10/24 11:05:35;;;;;;;6.25;2.75;;;;;;;;;;5036628;28;20043;-95
2021/10/24 11:08:01;;;;;;;6.53;2.25;;;;;;;;;;5070339;28;20476;-95
2021/10/24 11:10:45;;;;;;;6.35;2.75;;;;;;;;;;5041860;28;20018;-95
2021/10/24 11:13:26;;;;;;;5.63;2.80;;;;;;;;;;5037956;28;20014;-95
2021/10/24 11:15:51;;;;;;;7.45;3.25;;;;;;;;;;5036657;28;20100;-94
2021/10/24 11:18:28;;;;;;;7.13;3.25;;;;;;;;;;5069942;28;20087;-95
2021/10/24 11:20:54;;;;;;;4.32;2.35;;;;;;;;;;5037617;28;20036;-95
2021/10/24 11:23:20;;;;;;;6.20;2.35;;;;;;;;;;5069744;28;20469;-95
2021/10/24 11:25:46;;;;;;;7.57;3.33;;;;;;;;;;5024432;28;20401;-95
2021/10/24 11:28:14;;;;;;;3.85;1.73;;;;;;;;;;5030547;28;20105;-95
2021/10/24 11:30:39;;;;;;;7.97;3.17;;;;;;;;;;5029370;28;20083;-95
2021/10/24 11:33:06;;;;;;;5.70;2.67;;;;;;;;;;5036412;28;20378;-95
2021/10/24 11:35:31;;;;;;;6.65;3.30;;;;;;;;;;5027295;28;20072;-95
2021/10/24 11:37:58;;;;;;;8.43;3.00;;;;;;;;;;5032068;28;20025;-96
2021/10/24 11:40:31;;;;;;;9.63;2.80;;;;;;;;;;5069580;28;20049;-95
2021/10/24 11:42:56;;;;;;;4.05;2.38;;;;;;;;;;5036267;28;20062;-96
2021/10/24 11:45:22;;;;;;;6.22;2.75;;;;;;;;;;5037014;28;20052;-95
2021/10/24 11:48:06;;;;;;;5.55;2.00;;;;;;;;;;5036200;28;20053;-95
2021/10/24 11:50:34;;;;;;;4.22;2.15;;;;;;;;;;5056575;28;20060;-96
2021/10/24 11:53:00;;;;;;;5.20;2.10;;;;;;;;;;5056251;28;20017;-95
2021/10/24 11:55:25;;;;;;;7.68;2.25;;;;;;;;;;5035421;28;20020;-95
2021/10/24 11:58:06;;;;;;;4.95;1.88;;;;;;;;;;5035964;28;20013;-96
2021/10/24 12:03:12;;;;;;;11.35;2.20;;;;;;;;;;5036993;28;20048;-95
2021/10/24 12:05:38;;;;;;;6.93;3.13;;;;;;;;;;5035769;28;20048;-95
2021/10/24 12:08:03;;;;;;;6.25;2.63;;;;;;;;;;5069189;28;20100;-95
2021/10/24 12:10:36;;;;;;;4.95;2.33;;;;;;;;;;5068592;28;20013;-94
2021/10/24 12:13:03;;;;;;;7.70;2.35;;;;;;;;;;5035804;28;20376;-96
2021/10/24 12:15:38;;;;;;;3.47;2.03;;;;;;;;;;5035846;28;20121;-95
2021/10/24 12:18:16;;;;;;;7.97;2.40;;;;;;;;;;5035629;28;20045;-95
2021/10/24 12:20:57;;;;;;;10.00;2.35;;;;;;;;;;5033170;28;20108;-95
2021/10/24 12:23:26;;;;;;;5.95;2.13;;;;;;;;;;5026981;28;20385;-96
2021/10/24 12:25:52;;;;;;;4.10;2.20;;;;;;;;;;5035117;28;20053;-96
2021/10/24 12:28:45;;;;;;;5.30;2.20;;;;;;;;;;5035324;28;20469;-95
2021/10/24 12:31:14;;;;;;;4.88;2.10;;;;;;;;;;5036219;28;20038;-96
2021/10/24 12:33:40;;;;;;;9.30;2.50;;;;;;;;;;5068579;28;20377;-95
2021/10/24 12:36:07;;;;;;;6.10;2.60;;;;;;;;;;5035079;28;20440;-94
2021/10/24 12:38:52;;;;;;;9.60;2.35;;;;;;;;;;5035315;28;20018;-94
2021/10/24 12:41:36;;;;;;;7.03;2.00;;;;;;;;;;5036123;28;20026;-96
2021/10/24 12:44:03;;;;;;;3.60;1.85;;;;;;;;;;5035129;28;20030;-95
2021/10/24 12:46:29;;;;;;;6.35;2.08;;;;;;;;;;5068312;28;20030;-95
2021/10/24 12:48:55;;;;;;;4.88;2.10;;;;;;;;;;5035095;28;20014;-94
2021/10/24 12:51:30;;;;;;;3.53;1.75;;;;;;;;;;5034967;28;20101;-95
2021/10/24 12:53:56;;;;;;;3.17;1.83;;;;;;;;;;5054988;28;20021;-95
2021/10/24 12:56:22;;;;;;;6.75;1.95;;;;;;;;;;5036085;28;20026;-95
2021/10/24 12:58:48;;;;;;;3.85;2.15;;;;;;;;;;5068192;28;20013;-94
2021/10/24 13:01:19;;;;;;;3.42;1.90;;;;;;;;;;5035010;28;20105;-95
2021/10/24 13:03:44;;;;;;;3.60;1.90;;;;;;;;;;5034702;28;20480;-95
2021/10/24 13:06:10;;;;;;;5.32;1.58;;;;;;;;;;5034789;28;20028;-95
2021/10/24 13:08:35;;;;;;;4.43;2.40;;;;;;;;;;5067752;28;20022;-95
2021/10/24 13:11:00;;;;;;;6.18;1.98;;;;;;;;;;5034756;28;20056;-94
2021/10/24 13:13:25;;;;;;;5.28;1.98;;;;;;;;;;5034663;28;20092;-96
2021/10/24 13:15:50;;;;;;;4.45;2.00;;;;;;;;;;5067811;28;20461;-95
2021/10/24 13:18:16;;;;;;;8.00;2.38;;;;;;;;;;5034539;28;20021;-93
2021/10/24 13:20:43;;;;;;;6.65;2.22;;;;;;;;;;5065120;28;20025;-95
2021/10/24 13:23:09;;;;;;;4.63;1.88;;;;;;;;;;5034370;28;20021;-94
2021/10/24 13:25:34;;;;;;;3.50;2.30;;;;;;;;;;5067601;28;20017;-94
2021/10/24 13:27:59;;;;;;;3.55;2.08;;;;;;;;;;5034183;28;20025;-95
2021/10/24 13:30:25;;;;;;;4.28;1.65;;;;;;;;;;5067746;28;20024;-94
2021/10/24 13:32:51;;;;;;;3.20;1.75;;;;;;;;;;5034290;28;20025;-95
2021/10/24 13:35:19;;;;;;;4.65;1.92;;;;;;;;;;5067599;28;20022;-95
2021/10/24 13:37:45;;;;;;;3.60;2.25;;;;;;;;;;5035055;28;20018;-94
2021/10/24 13:40:10;;;;;;;6.63;2.25;;;;;;;;;;5033961;28;20021;-96
2021/10/24 13:42:36;;;;;;;8.15;2.65;;;;;;;;;;5035176;28;20032;-94
2021/10/24 13:45:01;;;;;;;6.18;2.17;;;;;;;;;;5067139;28;20064;-95
2021/10/24 13:47:27;;;;;;;4.18;2.00;;;;;;;;;;5067234;28;20018;-95
2021/10/24 13:49:52;;;;;;;3.60;1.80;;;;;;;;;;5067058;28;20505;-94
2021/10/24 13:52:17;;;;;;;5.15;1.60;;;;;;;;;;5067041;28;20373;-95
2021/10/24 13:54:43;;;;;;;3.83;2.25;;;;;;;;;;5034931;28;20021;-95
2021/10/24 13:57:08;;;;;;;4.30;2.00;;;;;;;;;;5060049;28;20485;-95
2021/10/24 13:59:34;;;;;;;5.63;2.30;;;;;;;;;;5030931;28;20076;-95
2021/10/24 14:02:00;;;;;;;6.22;2.00;;;;;;;;;;5030354;28;20018;-95
2021/10/24 14:04:25;;;;;;;3.35;1.60;;;;;;;;;;5022804;28;20032;-96
2021/10/24 14:06:50;;;;;;;4.45;1.75;;;;;;;;;;5033300;28;20126;-95
2021/10/24 14:09:16;;;;;;;3.65;1.70;;;;;;;;;;5066988;28;20010;-95
2021/10/24 14:11:41;;;;;;;6.30;1.73;;;;;;;;;;5033296;28;20028;-95
2021/10/24 14:14:06;;;;;;;6.55;1.85;;;;;;;;;;5033410;28;20558;-96
2021/10/24 14:16:32;;;;;;;6.72;1.65;;;;;;;;;;5066975;28;20104;-94
2021/10/24 14:18:57;;;;;;;5.85;1.60;;;;;;;;;;5034558;28;20092;-96
2021/10/24 14:21:22;;;;;;;3.83;1.80;;;;;;;;;;5057092;28;20028;-94
2021/10/24 14:23:48;;;;;;;4.63;1.80;;;;;;;;;;5028025;28;20032;-95
2021/10/24 14:26:13;;;;;;;2.47;1.50;;;;;;;;;;5033407;28;20013;-96
2021/10/24 14:28:38;;;;;;;3.67;1.70;;;;;;;;;;5033246;28;20021;-95
2021/10/24 14:31:04;;;;;;;5.13;1.92;;;;;;;;;;5065961;28;20429;-94
2021/10/24 14:33:29;;;;;;;5.18;2.33;;;;;;;;;;5020073;28;20075;-95
2021/10/24 14:35:54;;;;;;;5.00;2.03;;;;;;;;;;5034341;28;20022;-94